Time;durP1;ratioP1;P1;durP2;ratioP2;P2;SDS_P1;SDS_P2;PMS_P1;PMS_P2;Temp;Humidity;BMP_temperature;BMP_pressure;BME280_temperature;BME280_humidity;BME280_pressure;Samples;Min_cycle;Max_cycle;Signal;HPM_P1;HPM_P2
2022/03/17 00:00:56;;;;;;;11.30;3.75;;;;;;;8.20;97.01;101911.94;4988679;28;20504;-59
2022/03/17 00:03:21;;;;;;;10.98;4.00;;;;;;;8.23;97.46;101908.63;4985687;28;20034;-58
2022/03/17 00:05:47;;;;;;;13.95;4.47;;;;;;;8.28;98.06;101899.69;5002151;28;20030;-58
2022/03/17 00:08:14;;;;;;;10.13;3.88;;;;;;;8.20;97.37;101905.75;4992321;28;20080;-62
2022/03/17 00:10:41;;;;;;;10.65;3.80;;;;;;;8.14;98.66;101904.31;4975798;28;20035;-58
2022/03/17 00:13:06;;;;;;;17.02;5.18;;;;;;;8.14;98.83;101894.38;4973675;28;20469;-60
2022/03/17 00:15:32;;;;;;;9.65;4.35;;;;;;;8.10;98.74;101897.97;4993021;28;20477;-60
2022/03/17 00:17:57;;;;;;;13.52;3.80;;;;;;;8.13;98.60;101895.47;4991861;28;20042;-64
2022/03/17 00:20:23;;;;;;;14.05;4.80;;;;;;;8.23;98.03;101899.75;4992484;28;20038;-59
2022/03/17 00:22:49;;;;;;;10.45;4.22;;;;;;;8.15;98.68;101905.88;4971956;28;20045;-61
2022/03/17 00:25:15;;;;;;;10.57;4.60;;;;;;;8.16;98.54;101894.84;4991383;28;20465;-59
2022/03/17 00:27:41;;;;;;;12.73;3.53;;;;;;;8.19;98.82;101886.19;4991428;28;20100;-60
2022/03/17 00:30:07;;;;;;;13.07;4.38;;;;;;;8.20;98.45;101897.72;4983975;28;20073;-56
2022/03/17 00:32:32;;;;;;;13.00;4.20;;;;;;;8.28;98.26;101904.25;4991002;28;20034;-60
2022/03/17 00:37:42;;;;;;;11.30;4.38;;;;;;;8.31;97.78;101882.16;4991399;28;20489;-62
2022/03/17 00:40:08;;;;;;;20.10;4.93;;;;;;;8.13;98.35;101881.25;4989608;28;20049;-62
2022/03/17 00:42:33;;;;;;;11.30;3.92;;;;;;;8.04;99.16;101881.22;4991934;28;20066;-62
2022/03/17 00:44:59;;;;;;;12.27;5.07;;;;;;;8.10;99.53;101881.88;4992748;28;20083;-62
2022/03/17 00:47:24;;;;;;;13.50;5.70;;;;;;;8.20;98.71;101889.66;4991642;28;20109;-62
2022/03/17 00:49:50;;;;;;;10.75;5.32;;;;;;;8.18;98.62;101894.53;4982058;28;20038;-62
2022/03/17 00:52:17;;;;;;;13.55;5.07;;;;;;;8.14;98.36;101883.63;4991553;28;20038;-63
2022/03/17 00:54:43;;;;;;;14.82;4.85;;;;;;;8.12;98.54;101872.44;4991055;28;20049;-59
2022/03/17 00:57:09;;;;;;;15.20;4.47;;;;;;;8.02;99.24;101866.50;4984852;28;20034;-61
2022/03/17 00:59:38;;;;;;;14.32;5.57;;;;;;;7.98;100.00;101866.34;4991009;28;20041;-60
2022/03/17 01:02:05;;;;;;;19.40;5.43;;;;;;;8.05;99.59;101865.91;4974738;28;20030;-60
2022/03/17 01:04:31;;;;;;;15.43;5.07;;;;;;;8.04;99.24;101867.81;4973856;28;20031;-62
2022/03/17 01:06:57;;;;;;;17.98;5.05;;;;;;;8.10;99.11;101865.78;4952633;28;20144;-61
2022/03/17 01:09:23;;;;;;;13.25;5.32;;;;;;;8.00;99.50;101856.09;4991062;28;20520;-59
2022/03/17 01:11:49;;;;;;;16.85;4.68;;;;;;;7.86;100.00;101865.31;4982976;28;20039;-61
2022/03/17 01:14:15;;;;;;;17.65;5.47;;;;;;;7.86;100.00;101862.63;4989642;28;20110;-61
2022/03/17 01:16:41;;;;;;;18.60;5.15;;;;;;;7.89;100.00;101868.19;4982001;28;20046;-61
2022/03/17 01:19:07;;;;;;;17.63;6.35;;;;;;;7.94;100.00;101861.88;4978056;28;20580;-61
2022/03/17 01:21:32;;;;;;;14.45;5.47;;;;;;;7.99;100.00;101851.06;4992359;28;20074;-61
2022/03/17 01:23:58;;;;;;;16.83;5.38;;;;;;;7.86;100.00;101849.22;4990956;28;20042;-63
2022/03/17 01:26:23;;;;;;;13.15;5.05;;;;;;;7.76;100.00;101852.94;4990481;28;20068;-63
2022/03/17 01:28:49;;;;;;;17.45;5.80;;;;;;;7.74;100.00;101836.38;4970888;28;20523;-63
2022/03/17 01:31:15;;;;;;;13.95;5.68;;;;;;;7.82;100.00;101840.22;4970590;28;20049;-61
2022/03/17 01:33:40;;;;;;;19.25;6.40;;;;;;;7.88;100.00;101833.63;4974986;28;20065;-62
2022/03/17 01:36:06;;;;;;;13.05;5.35;;;;;;;7.99;100.00;101845.69;4974004;28;20041;-63
2022/03/17 01:38:31;;;;;;;16.05;4.53;;;;;;;7.97;100.00;101823.75;4990871;28;20038;-63
2022/03/17 01:40:56;;;;;;;21.85;5.43;;;;;;;7.86;100.00;101833.94;4989537;28;20453;-62
2022/03/17 01:43:22;;;;;;;14.73;5.97;;;;;;;7.92;100.00;101829.22;4991355;28;20450;-63
2022/03/17 01:45:47;;;;;;;17.27;5.75;;;;;;;7.94;100.00;101830.50;4990530;28;20065;-63
2022/03/17 01:48:13;;;;;;;18.05;6.40;;;;;;;7.92;100.00;101839.94;4968653;28;20560;-62
2022/03/17 01:50:38;;;;;;;15.73;5.32;;;;;;;7.90;100.00;101842.16;4949599;28;20026;-63
2022/03/17 01:53:04;;;;;;;15.90;5.57;;;;;;;7.87;100.00;101845.44;4980265;28;20045;-62
2022/03/17 01:55:30;;;;;;;15.27;5.97;;;;;;;7.80;100.00;101829.78;4988624;28;20474;-62
2022/03/17 01:57:57;;;;;;;18.92;5.75;;;;;;;7.84;100.00;101832.66;4983147;28;20038;-63
2022/03/17 02:00:22;;;;;;;17.92;4.82;;;;;;;7.81;100.00;101822.53;4972664;28;20034;-63
2022/03/17 02:02:50;;;;;;;18.95;6.60;;;;;;;7.81;100.00;101825.22;4982822;28;20039;-62
2022/03/17 02:05:17;;;;;;;16.88;5.22;;;;;;;7.77;100.00;101829.63;4989947;28;20041;-63
2022/03/17 02:07:52;;;;;;;19.48;6.82;;;;;;;7.76;100.00;101828.81;4992200;28;20046;-63
2022/03/17 02:10:20;;;;;;;15.20;6.65;;;;;;;7.86;100.00;101812.47;4990419;28;20030;-63
2022/03/17 02:15:33;;;;;;;16.75;6.25;;;;;;;7.85;100.00;101802.84;4990452;28;20030;-62
2022/03/17 02:18:00;;;;;;;15.73;5.32;;;;;;;7.85;100.00;101802.84;4991092;28;20439;-64
2022/03/17 02:20:26;;;;;;;23.00;5.63;;;;;;;7.83;100.00;101805.06;4952064;28;20512;-63
2022/03/17 02:22:53;;;;;;;18.52;6.65;;;;;;;7.74;100.00;101808.78;4988516;28;20037;-64
2022/03/17 02:25:36;;;;;;;12.77;5.93;;;;;;;7.79;100.00;101800.59;4974018;28;20030;-62
2022/03/17 02:28:04;;;;;;;14.80;5.57;;;;;;;7.64;100.00;101783.03;4990214;28;20042;-63
2022/03/17 02:30:34;;;;;;;18.02;6.93;;;;;;;7.64;100.00;101780.34;4978060;28;20237;-61
2022/03/17 02:33:07;;;;;;;15.50;5.70;;;;;;;7.62;100.00;101798.63;4989690;28;20504;-63
2022/03/17 02:35:37;;;;;;;16.80;5.95;;;;;;;7.76;100.00;101788.59;4974844;28;20041;-62
2022/03/17 02:38:04;;;;;;;15.65;6.32;;;;;;;7.84;100.00;101782.50;4983540;28;20066;-61
2022/03/17 02:40:31;;;;;;;24.55;6.90;;;;;;;7.78;100.00;101788.31;4968659;28;20389;-63
2022/03/17 02:42:57;;;;;;;18.42;6.22;;;;;;;7.84;100.00;101787.09;4985061;28;20038;-62
2022/03/17 02:45:23;;;;;;;21.95;6.03;;;;;;;7.79;100.00;101779.16;4985263;28;20038;-61
2022/03/17 02:47:48;;;;;;;25.83;6.88;;;;;;;7.93;100.00;101782.53;4966308;28;20282;-63
2022/03/17 02:50:14;;;;;;;21.80;6.55;;;;;;;7.77;100.00;101759.91;4985048;28;20084;-63
2022/03/17 02:52:40;;;;;;;16.60;5.78;;;;;;;7.83;100.00;101767.53;4988185;28;20125;-63
2022/03/17 02:55:08;;;;;;;22.45;6.50;;;;;;;7.80;100.00;101773.47;4972129;28;20034;-64
2022/03/17 02:57:33;;;;;;;18.92;6.63;;;;;;;7.87;100.00;101768.50;4971747;28;20370;-63
2022/03/17 02:59:59;;;;;;;19.77;6.50;;;;;;;7.85;100.00;101765.31;4988732;28;20048;-63
2022/03/17 03:02:24;;;;;;;15.82;5.60;;;;;;;7.74;100.00;101774.72;4984839;28;20046;-63
2022/03/17 03:04:50;;;;;;;22.38;6.53;;;;;;;7.62;100.00;101762.97;4974214;28;20032;-63
2022/03/17 03:07:16;;;;;;;18.60;6.78;;;;;;;7.68;100.00;101751.03;4984213;28;20400;-62
2022/03/17 03:09:41;;;;;;;15.98;5.57;;;;;;;7.65;100.00;101747.06;4989065;28;20085;-63
2022/03/17 03:12:07;;;;;;;18.05;6.97;;;;;;;7.62;100.00;101753.06;4984625;28;20038;-62
2022/03/17 03:14:33;;;;;;;22.50;7.07;;;;;;;7.73;100.00;101757.06;4986825;28;20042;-63
2022/03/17 03:16:58;;;;;;;15.52;5.68;;;;;;;7.80;100.00;101765.44;4972344;28;20034;-63
2022/03/17 03:19:24;;;;;;;17.50;6.38;;;;;;;7.73;100.00;101758.94;4984883;28;20039;-61
2022/03/17 03:21:50;;;;;;;17.50;6.85;;;;;;;7.72;100.00;101760.06;4987543;28;20076;-62
2022/03/17 03:24:16;;;;;;;24.80;7.38;;;;;;;7.75;100.00;101760.22;4973434;28;20066;-61
2022/03/17 03:26:43;;;;;;;16.73;6.85;;;;;;;7.68;100.00;101761.75;4989711;28;20042;-63
2022/03/17 03:29:17;;;;;;;16.95;6.03;;;;;;;7.61;100.00;101750.66;4954219;28;20026;-63
2022/03/17 03:31:42;;;;;;;18.02;7.15;;;;;;;7.69;100.00;101745.38;4987711;28;20409;-63
2022/03/17 03:34:08;;;;;;;21.95;8.10;;;;;;;7.58;100.00;101743.25;4972803;28;20026;-61
2022/03/17 03:39:17;;;;;;;21.73;7.40;;;;;;;7.71;100.00;101731.66;4977188;28;20055;-63
2022/03/17 03:41:43;;;;;;;22.77;7.60;;;;;;;7.69;100.00;101728.47;4993022;28;20068;-63
2022/03/17 03:44:14;;;;;;;20.48;6.47;;;;;;;7.76;100.00;101726.16;4976112;28;20030;-63
2022/03/17 03:46:41;;;;;;;21.95;8.40;;;;;;;7.77;100.00;101736.56;4995039;28;20100;-63
2022/03/17 03:49:06;;;;;;;19.05;6.18;;;;;;;7.78;100.00;101721.28;4976987;28;20089;-63
2022/03/17 03:51:32;;;;;;;21.73;7.35;;;;;;;7.65;100.00;101717.59;4989943;28;20034;-62
2022/03/17 03:54:13;;;;;;;20.95;7.10;;;;;;;7.67;100.00;101717.28;4976354;28;20080;-63
2022/03/17 03:56:59;;;;;;;24.55;7.22;;;;;;;7.68;100.00;101721.56;4975952;28;20034;-62
2022/03/17 03:59:26;;;;;;;17.95;5.65;;;;;;;7.67;100.00;101717.28;4990239;28;20334;-63
2022/03/17 04:02:01;;;;;;;24.92;7.68;;;;;;;7.73;100.00;101721.41;4988708;28;20585;-63
2022/03/17 04:04:27;;;;;;;20.10;7.80;;;;;;;7.72;100.00;101712.59;4989612;28;20039;-63
2022/03/17 04:06:59;;;;;;;18.85;6.97;;;;;;;7.61;100.00;101715.81;4992792;28;20046;-61
2022/03/17 04:09:30;;;;;;;28.67;8.80;;;;;;;7.75;100.00;101711.16;4992247;28;20319;-63
2022/03/17 04:11:56;;;;;;;13.70;6.55;;;;;;;7.68;100.00;101718.88;4991684;28;20034;-62
2022/03/17 04:14:22;;;;;;;18.50;6.28;;;;;;;7.72;100.00;101725.19;4992187;28;20034;-57
2022/03/17 04:16:48;;;;;;;24.50;7.28;;;;;;;7.75;100.00;101719.22;4989622;28;20445;-62
2022/03/17 04:19:15;;;;;;;19.55;7.90;;;;;;;7.70;100.00;101711.31;4990428;28;20547;-62
2022/03/17 04:21:41;;;;;;;24.42;7.35;;;;;;;7.79;100.00;101712.13;4992394;28;20393;-62
2022/03/17 04:24:07;;;;;;;20.92;7.82;;;;;;;7.82;100.00;101708.84;4987313;28;20038;-61
2022/03/17 04:26:32;;;;;;;22.20;7.57;;;;;;;7.80;100.00;101716.41;4974546;28;20444;-63
2022/03/17 04:28:58;;;;;;;21.83;7.68;;;;;;;7.87;100.00;101727.47;4991518;28;20034;-62
2022/03/17 04:31:23;;;;;;;26.08;7.82;;;;;;;7.82;100.00;101727.63;4988992;28;20068;-59
2022/03/17 04:33:50;;;;;;;20.33;8.00;;;;;;;7.81;100.00;101720.66;4979915;28;20535;-63
2022/03/17 04:36:16;;;;;;;22.60;8.00;;;;;;;7.90;99.83;101706.19;4974723;28;20049;-61
2022/03/17 04:38:42;;;;;;;17.83;7.80;;;;;;;7.87;100.00;101709.50;4978841;28;20490;-61
2022/03/17 04:41:09;;;;;;;21.40;7.53;;;;;;;7.83;100.00;101694.31;4987446;28;20400;-61
2022/03/17 04:43:36;;;;;;;19.83;6.78;;;;;;;7.96;100.00;101694.22;4977687;28;20392;-62
2022/03/17 04:46:01;;;;;;;19.08;7.25;;;;;;;7.92;99.69;101692.44;4960273;28;20088;-62
2022/03/17 04:48:27;;;;;;;20.40;7.75;;;;;;;7.93;99.72;101686.81;4972313;28;20043;-63
2022/03/17 04:50:52;;;;;;;19.73;7.43;;;;;;;7.91;99.65;101677.47;4974843;28;20082;-59
2022/03/17 04:53:27;;;;;;;19.15;7.45;;;;;;;7.98;99.31;101681.28;4991554;22;20051;-57
2022/03/17 04:55:54;;;;;;;18.38;7.70;;;;;;;8.03;98.78;101688.41;4963387;28;20070;-59
2022/03/17 04:58:19;;;;;;;22.38;8.20;;;;;;;7.93;99.03;101686.81;4961599;28;20167;-57
2022/03/17 05:00:46;;;;;;;23.20;8.07;;;;;;;7.92;99.58;101687.88;4937077;29;20074;-61
2022/03/17 05:03:12;;;;;;;24.58;7.50;;;;;;;7.94;99.25;101677.63;4928851;28;20087;-58
2022/03/17 05:05:38;;;;;;;19.85;8.13;;;;;;;7.81;99.74;101693.84;4932814;28;20036;-58
2022/03/17 05:08:05;;;;;;;19.27;7.00;;;;;;;7.88;99.56;101678.88;4934304;28;20075;-56
2022/03/17 05:10:31;;;;;;;31.50;9.05;;;;;;;7.88;99.37;101668.16;4915509;29;20123;-65
2022/03/17 05:12:57;;;;;;;18.63;7.03;;;;;;;7.90;99.29;101673.19;4936013;28;20090;-58
2022/03/17 05:15:23;;;;;;;25.25;7.47;;;;;;;7.79;99.57;101666.56;4935086;28;20505;-57
2022/03/17 05:17:49;;;;;;;21.92;7.72;;;;;;;7.89;99.66;101667.06;4933697;28;20090;-59
2022/03/17 05:20:14;;;;;;;24.88;8.48;;;;;;;7.74;99.74;101669.38;4925029;29;20042;-60
2022/03/17 05:22:41;;;;;;;22.80;9.13;;;;;;;7.82;99.77;101661.34;4951499;29;20027;-61
2022/03/17 05:25:11;;;;;;;17.75;7.53;;;;;;;7.89;98.91;101674.31;4936647;29;20032;-61
2022/03/17 05:27:41;;;;;;;22.43;7.67;;;;;;;7.88;99.17;101680.75;4933261;29;20183;-59
2022/03/17 05:30:13;;;;;;;16.85;6.05;;;;;;;7.87;98.44;101684.56;4934597;29;20044;-57
2022/03/17 05:32:46;;;;;;;19.10;7.20;;;;;;;7.86;99.17;101680.28;4951564;29;20031;-58
2022/03/17 05:35:13;;;;;;;16.60;7.20;;;;;;;7.81;99.16;101689.28;4916073;29;20032;-62
2022/03/17 05:37:40;;;;;;;22.67;8.73;;;;;;;7.83;99.39;101686.28;4912430;28;20039;-55
2022/03/17 05:40:10;;;;;;;20.25;7.43;;;;;;;7.79;99.28;101686.13;4927977;29;20520;-60
2022/03/17 05:42:35;;;;;;;23.70;8.13;;;;;;;7.83;99.28;101679.03;4935117;29;20058;-55
2022/03/17 05:45:05;;;;;;;20.35;6.20;;;;;;;8.01;98.49;101674.53;4944698;29;20470;-57
2022/03/17 05:47:35;;;;;;;21.35;7.32;;;;;;;7.95;98.02;101673.88;4932109;29;20189;-60
2022/03/17 05:50:03;;;;;;;15.80;7.45;;;;;;;7.88;98.34;101660.13;4913031;29;20439;-63
2022/03/17 05:52:29;;;;;;;26.15;8.43;;;;;;;7.88;98.24;101672.72;4948904;28;20046;-58
2022/03/17 05:54:54;;;;;;;17.80;7.50;;;;;;;7.98;98.07;101670.56;4933450;29;20035;-60
2022/03/17 05:57:19;;;;;;;21.08;7.03;;;;;;;7.95;97.84;101668.50;4934087;29;20058;-59
2022/03/17 05:59:45;;;;;;;18.05;6.60;;;;;;;8.02;97.28;101681.44;4922114;29;20040;-59
2022/03/17 06:02:10;;;;;;;15.10;6.20;;;;;;;8.01;97.45;101671.84;4921582;29;20062;-59
2022/03/17 06:04:37;;;;;;;21.42;8.27;;;;;;;8.05;97.55;101659.38;4932649;28;20712;-58
2022/03/17 06:07:03;;;;;;;24.63;8.02;;;;;;;8.01;96.91;101677.97;4932891;29;20038;-58
2022/03/17 06:09:29;;;;;;;23.63;8.20;;;;;;;8.05;97.25;101670.88;4951361;29;20027;-61
2022/03/17 06:11:55;;;;;;;18.85;7.38;;;;;;;7.93;96.96;101661.88;4918768;29;20573;-57
2022/03/17 06:14:21;;;;;;;22.45;7.80;;;;;;;7.94;97.59;101658.88;4924506;29;20050;-58
2022/03/17 06:16:47;;;;;;;26.38;8.85;;;;;;;8.01;97.29;101669.16;4933083;28;20046;-62
2022/03/17 06:19:12;;;;;;;22.65;7.05;;;;;;;7.97;97.16;101670.88;4934026;28;20031;-58
2022/03/17 06:21:38;;;;;;;19.40;7.63;;;;;;;8.10;96.97;101672.63;4919992;29;20041;-62
2022/03/17 06:24:03;;;;;;;19.48;7.43;;;;;;;8.17;95.96;101665.69;4932487;29;20031;-57
2022/03/17 06:26:29;;;;;;;26.40;7.65;;;;;;;8.21;96.22;101672.03;4933518;29;20042;-56
2022/03/17 06:28:54;;;;;;;22.98;7.82;;;;;;;8.18;95.84;101669.97;4930110;29;20039;-59
2022/03/17 06:31:19;;;;;;;19.75;7.97;;;;;;;8.18;96.42;101678.03;4928142;28;20454;-58
2022/03/17 06:33:45;;;;;;;23.95;8.98;;;;;;;8.23;95.56;101688.59;4945123;28;20538;-60
2022/03/17 06:36:13;;;;;;;21.23;8.07;;;;;;;8.28;95.43;101674.28;4932328;29;20062;-59
2022/03/17 06:38:39;;;;;;;17.13;7.88;;;;;;;8.24;96.24;101670.63;4944568;29;20848;-59
2022/03/17 06:41:04;;;;;;;27.08;9.55;;;;;;;8.21;95.87;101676.59;4930394;29;20047;-61
2022/03/17 06:43:30;;;;;;;17.67;7.00;;;;;;;8.31;96.02;101667.47;4915067;29;20131;-62
2022/03/17 06:45:55;;;;;;;26.13;8.18;;;;;;;8.19;95.76;101655.44;4949245;28;20505;-60
2022/03/17 06:48:20;;;;;;;23.58;8.23;;;;;;;8.23;95.76;101665.56;4902203;29;20082;-61
2022/03/17 06:50:46;;;;;;;28.33;8.77;;;;;;;8.37;95.78;101660.84;4933390;29;20036;-58
2022/03/17 06:53:11;;;;;;;21.15;7.90;;;;;;;8.42;95.31;101668.78;4919571;29;20104;-60
2022/03/17 06:55:37;;;;;;;25.88;8.45;;;;;;;8.45;94.50;101663.56;4930786;29;20031;-58
2022/03/17 06:58:03;;;;;;;19.27;7.85;;;;;;;8.44;94.41;101678.06;4939745;29;20043;-55
2022/03/17 07:00:28;;;;;;;20.75;7.47;;;;;;;8.44;94.86;101675.38;4936700;28;20027;-59
2022/03/17 07:02:54;;;;;;;24.42;8.25;;;;;;;8.60;94.30;101670.34;4932845;29;20051;-55
2022/03/17 07:05:19;;;;;;;23.30;8.80;;;;;;;8.66;93.95;101674.44;4930252;29;20032;-57
2022/03/17 07:07:45;;;;;;;21.35;8.65;;;;;;;8.71;93.05;101671.63;4931398;29;20040;-54
2022/03/17 07:10:12;;;;;;;24.73;9.25;;;;;;;8.71;93.26;101677.00;4928697;28;20542;-61
2022/03/17 07:12:39;;;;;;;20.35;7.90;;;;;;;8.76;93.33;101679.50;4933001;28;20035;-61
2022/03/17 07:15:05;;;;;;;23.17;8.45;;;;;;;8.74;93.06;101679.84;4906560;29;20038;-59
2022/03/17 07:17:39;;;;;;;21.58;7.72;;;;;;;8.71;92.41;101683.13;4933755;28;20032;-56
2022/03/17 07:20:10;;;;;;;21.38;8.30;;;;;;;8.77;93.25;101681.88;4919797;29;20402;-53
2022/03/17 07:22:36;;;;;;;21.13;9.35;;;;;;;8.81;92.96;101687.41;4921023;29;20031;-57
2022/03/17 07:25:03;;;;;;;26.70;8.98;;;;;;;8.92;92.67;101684.06;4935010;29;20360;-62
2022/03/17 07:27:30;;;;;;;24.40;9.20;;;;;;;8.85;92.97;101683.78;4933439;29;20461;-59
2022/03/17 07:29:56;;;;;;;26.65;9.30;;;;;;;8.85;92.59;101694.50;4933154;28;20047;-61
2022/03/17 07:32:24;;;;;;;21.88;8.20;;;;;;;8.94;92.64;101687.22;4936061;28;20044;-56
2022/03/17 07:34:50;;;;;;;27.88;9.38;;;;;;;8.83;92.81;101696.72;4933851;29;20051;-61
2022/03/17 07:37:16;;;;;;;22.90;8.65;;;;;;;8.81;93.21;101701.63;4931504;29;20076;-61
2022/03/17 07:39:42;;;;;;;23.48;8.90;;;;;;;8.75;93.05;101691.38;4926445;29;20457;-62
2022/03/17 07:42:11;;;;;;;29.30;10.02;;;;;;;8.76;93.43;101695.63;4920308;29;20114;-60
2022/03/17 07:44:57;;;;;;;24.75;9.35;;;;;;;8.79;93.44;101709.19;4937998;28;20039;-61
2022/03/17 07:47:48;;;;;;;25.35;8.50;;;;;;;8.89;92.67;101695.47;4936002;28;20406;-60
2022/03/17 07:50:14;;;;;;;27.65;9.43;;;;;;;8.96;92.42;101709.19;4939116;28;20036;-62
2022/03/17 07:52:40;;;;;;;25.92;9.35;;;;;;;9.03;92.07;101711.41;4922990;29;20036;-61
2022/03/17 07:55:06;;;;;;;25.48;8.13;;;;;;;9.00;91.74;101723.56;4936658;29;20046;-62
2022/03/17 07:57:32;;;;;;;25.33;7.78;;;;;;;8.95;92.55;101726.44;4934282;29;20039;-62
2022/03/17 07:59:58;;;;;;;22.45;8.65;;;;;;;9.02;92.08;101715.19;4942493;29;20031;-62
2022/03/17 08:02:24;;;;;;;26.23;9.27;;;;;;;8.93;92.41;101707.16;4932521;28;20039;-64
2022/03/17 08:04:52;;;;;;;25.50;8.52;;;;;;;8.87;93.08;101700.34;4933512;28;20042;-60
2022/03/17 08:07:18;;;;;;;17.02;7.18;;;;;;;9.06;92.69;101716.13;4934071;28;20138;-62
2022/03/17 08:09:43;;;;;;;24.85;8.90;;;;;;;9.07;92.12;101718.53;4915059;29;20494;-62
2022/03/17 08:12:09;;;;;;;28.48;9.02;;;;;;;9.15;92.29;101710.75;4933832;29;20235;-61
2022/03/17 08:14:35;;;;;;;26.00;8.98;;;;;;;9.03;92.22;101712.19;4927364;29;20031;-62
2022/03/17 08:17:00;;;;;;;22.73;8.63;;;;;;;9.07;92.37;101706.97;4916120;29;20043;-63
2022/03/17 08:19:26;;;;;;;25.80;9.23;;;;;;;9.22;92.33;101708.38;4936693;28;20047;-61
2022/03/17 08:21:52;;;;;;;22.30;9.00;;;;;;;9.30;91.58;101718.31;4941123;28;20648;-62
2022/03/17 08:24:18;;;;;;;25.42;8.82;;;;;;;9.33;91.21;101715.78;4916895;29;20098;-61
2022/03/17 08:26:43;;;;;;;23.23;9.30;;;;;;;9.40;90.77;101715.28;4935105;28;20027;-62
2022/03/17 08:29:09;;;;;;;27.63;8.95;;;;;;;9.29;91.15;101703.31;4916436;29;20084;-61
2022/03/17 08:31:34;;;;;;;21.80;8.45;;;;;;;9.37;90.13;101710.56;4930388;29;20061;-62
2022/03/17 08:34:00;;;;;;;29.58;9.13;;;;;;;9.37;90.24;101716.72;4933934;28;20099;-62
2022/03/17 08:36:26;;;;;;;21.40;7.93;;;;;;;9.42;89.97;101718.44;4930637;28;20122;-63
2022/03/17 08:38:52;;;;;;;21.80;8.35;;;;;;;9.41;90.29;101712.28;4935831;29;20035;-63
2022/03/17 08:41:19;;;;;;;21.88;8.98;;;;;;;9.50;89.84;101715.75;4934921;29;20465;-63
2022/03/17 08:43:44;;;;;;;26.17;9.23;;;;;;;9.54;89.17;101722.03;4930483;29;20069;-63
2022/03/17 08:51:38;;;;;;;24.27;8.77;;;;;;;9.66;88.59;101724.84;4953089;29;20475;-62
2022/03/17 08:54:03;;;;;;;24.05;7.63;;;;;;;9.73;88.19;101733.25;4930998;29;20078;-61
2022/03/17 08:56:29;;;;;;;21.65;9.18;;;;;;;9.60;88.62;101728.81;4940742;28;20046;-62
2022/03/17 08:58:54;;;;;;;22.92;9.10;;;;;;;9.68;88.58;101732.59;4932455;29;20046;-63
2022/03/17 09:01:20;;;;;;;25.00;9.70;;;;;;;9.84;87.67;101745.22;4941586;28;20048;-62
2022/03/17 09:03:46;;;;;;;25.10;8.73;;;;;;;9.74;87.53;101742.06;4952863;28;20047;-62
2022/03/17 09:06:12;;;;;;;24.42;10.15;;;;;;;9.73;87.48;101751.25;4926005;29;20111;-61
2022/03/17 09:08:41;;;;;;;22.63;9.35;;;;;;;9.83;87.61;101745.53;4935549;28;20099;-62
2022/03/17 09:11:07;;;;;;;26.02;9.52;;;;;;;9.85;87.98;101748.69;4948289;29;20099;-61
2022/03/17 09:13:34;;;;;;;25.77;9.68;;;;;;;9.83;87.04;101750.91;4924956;29;20118;-62
2022/03/17 09:15:59;;;;;;;23.42;9.45;;;;;;;9.66;87.23;101753.63;4932337;29;20036;-61
2022/03/17 09:18:27;;;;;;;23.17;8.43;;;;;;;9.60;88.25;101757.63;4930386;29;20054;-62
2022/03/17 09:20:53;;;;;;;26.50;10.45;;;;;;;9.74;87.39;101760.91;4939297;28;20035;-63
2022/03/17 09:23:19;;;;;;;26.33;9.75;;;;;;;9.62;87.65;101761.56;4918017;29;20413;-62
2022/03/17 09:25:45;;;;;;;25.45;9.38;;;;;;;9.58;88.53;101767.94;4916211;29;20618;-62
2022/03/17 09:28:11;;;;;;;20.23;8.75;;;;;;;9.67;87.83;101772.16;4932088;29;20112;-62
2022/03/17 09:30:37;;;;;;;23.75;9.55;;;;;;;9.68;87.72;101767.56;4942926;29;20062;-63
2022/03/17 09:33:04;;;;;;;23.40;9.35;;;;;;;9.57;88.52;101769.81;4941908;29;20487;-62
2022/03/17 09:35:30;;;;;;;21.13;9.45;;;;;;;9.48;89.22;101769.06;4928674;28;20106;-62
2022/03/17 09:37:55;;;;;;;27.40;8.90;;;;;;;9.71;88.31;101766.94;4930412;28;20046;-62
2022/03/17 09:40:21;;;;;;;28.08;10.10;;;;;;;9.55;90.01;101774.72;4919463;29;20062;-62
2022/03/17 09:42:47;;;;;;;20.10;8.40;;;;;;;9.55;90.83;101780.09;4936408;29;20054;-61
2022/03/17 09:45:14;;;;;;;28.75;9.77;;;;;;;9.55;91.23;101782.00;4940060;29;20028;-62
2022/03/17 09:47:44;;;;;;;22.52;8.57;;;;;;;9.54;92.08;101780.44;4915002;29;20057;-62
2022/03/17 09:50:13;;;;;;;26.27;8.75;;;;;;;9.58;92.48;101776.75;4937571;28;20585;-62
2022/03/17 09:52:41;;;;;;;22.52;9.15;;;;;;;9.51;93.32;101791.81;4932092;28;20102;-62
2022/03/17 09:55:10;;;;;;;24.25;9.25;;;;;;;9.51;93.32;101781.06;4934928;29;20036;-62
2022/03/17 09:57:45;;;;;;;22.17;7.88;;;;;;;9.40;94.87;101791.38;4931502;29;20036;-61
2022/03/17 10:00:17;;;;;;;26.50;8.82;;;;;;;9.41;95.43;101790.25;5077008;27;20415;-62
2022/03/17 10:02:43;;;;;;;25.90;8.85;;;;;;;9.49;95.19;101799.41;5060133;28;20048;-63
2022/03/17 10:05:11;;;;;;;21.52;8.05;;;;;;;9.39;95.98;101810.50;5054915;28;20545;-62
2022/03/17 10:07:38;;;;;;;26.83;9.63;;;;;;;9.46;96.86;101816.97;5058091;28;20029;-62
2022/03/17 10:10:04;;;;;;;25.02;9.88;;;;;;;9.40;97.02;101822.81;5063232;28;20506;-62
2022/03/17 10:12:32;;;;;;;20.98;7.82;;;;;;;9.48;96.95;101822.03;5062764;28;20096;-62
2022/03/17 10:14:58;;;;;;;23.00;10.45;;;;;;;9.51;96.97;101824.88;5054987;28;20113;-62
2022/03/17 10:17:33;;;;;;;33.08;9.45;;;;;;;9.44;98.81;101832.63;5064063;28;20029;-62
2022/03/17 10:20:22;;;;;;;27.45;9.38;;;;;;;9.40;99.72;101841.63;5065260;28;20446;-63
2022/03/17 10:22:48;;;;;;;25.35;10.30;;;;;;;9.39;99.91;101848.13;5064666;28;20387;-62
2022/03/17 10:25:18;;;;;;;26.65;9.13;;;;;;;9.39;100.00;101848.13;5055193;28;20131;-63
2022/03/17 10:27:49;;;;;;;24.98;9.02;;;;;;;9.37;100.00;101853.03;5056244;28;20036;-63
2022/03/17 10:30:30;;;;;;;19.13;8.57;;;;;;;9.43;100.00;101863.28;5066450;28;20040;-62
2022/03/17 10:33:03;;;;;;;23.08;8.65;;;;;;;9.33;100.00;101862.84;5063786;28;20395;-60
2022/03/17 10:35:34;;;;;;;23.48;10.60;;;;;;;9.33;100.00;101871.66;5064036;28;20029;-61
2022/03/17 10:38:10;;;;;;;23.42;8.63;;;;;;;9.43;100.00;101865.19;5056892;28;20567;-62
2022/03/17 10:40:36;;;;;;;25.42;8.88;;;;;;;9.48;100.00;101873.13;5065534;28;20112;-63
2022/03/17 10:43:25;;;;;;;26.67;9.23;;;;;;;9.46;100.00;101880.69;5065856;28;20171;-62
2022/03/17 10:46:16;;;;;;;23.33;9.05;;;;;;;9.43;100.00;101882.13;5061542;28;20437;-63
2022/03/17 10:49:01;;;;;;;31.83;10.13;;;;;;;9.44;100.00;101888.28;5058087;28;20032;-62
2022/03/17 10:51:41;;;;;;;24.63;9.70;;;;;;;9.49;100.00;101894.31;5065831;28;20033;-61
2022/03/17 10:54:20;;;;;;;21.88;9.02;;;;;;;9.46;100.00;101902.22;5064932;22;20088;-54
2022/03/17 10:57:08;;;;;;;27.35;9.20;;;;;;;9.51;100.00;101907.41;5036028;28;20434;-56
2022/03/17 10:59:42;;;;;;;26.00;9.10;;;;;;;9.61;100.00;101915.97;5041390;28;20122;-53
2022/03/17 11:02:08;;;;;;;27.30;9.25;;;;;;;9.56;100.00;101928.78;5042308;28;20212;-55
2022/03/17 11:04:38;;;;;;;27.75;9.55;;;;;;;9.50;100.00;101919.28;5045022;28;20383;-57
2022/03/17 11:07:13;;;;;;;23.77;9.77;;;;;;;9.48;100.00;101927.69;5039213;28;20499;-55
2022/03/17 11:09:40;;;;;;;18.58;8.63;;;;;;;9.38;100.00;101929.88;5034800;28;20033;-57
2022/03/17 11:12:10;;;;;;;27.15;9.57;;;;;;;9.35;100.00;101933.97;5031525;28;20059;-55
2022/03/17 11:14:42;;;;;;;30.00;9.98;;;;;;;9.42;100.00;101925.44;5025151;28;20030;-54
2022/03/17 11:17:11;;;;;;;23.63;9.20;;;;;;;9.50;100.00;101936.22;5022153;28;20037;-58
2022/03/17 11:19:37;;;;;;;26.85;10.45;;;;;;;9.45;100.00;101943.63;5012615;28;20030;-59
2022/03/17 11:22:09;;;;;;;25.02;9.52;;;;;;;9.41;100.00;101948.06;5029186;28;20029;-60
2022/03/17 11:24:37;;;;;;;23.05;8.05;;;;;;;9.50;100.00;101946.97;5024948;28;20044;-61
2022/03/17 11:27:11;;;;;;;22.75;9.13;;;;;;;9.50;100.00;101955.06;5030373;28;20043;-61
2022/03/17 11:29:48;;;;;;;24.58;9.60;;;;;;;9.51;100.00;101959.31;5025416;28;20104;-60
2022/03/17 11:32:29;;;;;;;20.95;7.03;;;;;;;9.59;100.00;101971.19;5028372;28;20041;-60
2022/03/17 11:35:17;;;;;;;23.27;8.30;;;;;;;9.53;100.00;101965.16;5021115;28;20041;-59
2022/03/17 11:37:42;;;;;;;18.92;7.45;;;;;;;9.57;100.00;101986.81;5026522;28;20395;-58